createdAt,value
2023-02-18T00:00:57.516Z,2.50
2023-02-18T00:01:57.529Z,2.90
2023-02-18T00:02:57.492Z,3.10
2023-02-18T00:03:57.482Z,3.70
2023-02-18T00:04:57.480Z,2.80
2023-02-18T00:05:57.457Z,3.00
2023-02-18T00:06:57.443Z,3.50
2023-02-18T00:07:57.435Z,3.00
2023-02-18T00:08:57.424Z,3.20
2023-02-18T00:09:57.417Z,3.20
2023-02-18T00:10:57.398Z,3.20
2023-02-18T00:11:57.390Z,3.90
2023-02-18T00:12:57.375Z,3.10
2023-02-18T00:13:57.366Z,3.20
2023-02-18T00:14:57.354Z,2.80
2023-02-18T00:15:57.410Z,3.00
2023-02-18T00:16:57.331Z,3.50
2023-02-18T00:17:57.348Z,2.80
2023-02-18T00:18:57.309Z,2.80
2023-02-18T00:19:57.304Z,2.40
2023-02-18T00:20:57.287Z,2.90
2023-02-18T00:21:57.278Z,2.90
2023-02-18T00:22:57.265Z,3.40
2023-02-18T00:23:57.256Z,3.00
2023-02-18T00:24:57.242Z,3.10
2023-02-18T00:25:57.234Z,2.90
2023-02-18T00:26:57.218Z,3.30
2023-02-18T00:27:57.210Z,3.40
2023-02-18T00:28:57.200Z,3.90
2023-02-18T00:29:57.184Z,3.60
2023-02-18T00:30:57.226Z,3.00
2023-02-18T00:31:57.402Z,2.90
2023-02-18T00:32:57.154Z,2.90
2023-02-18T00:33:57.263Z,2.60
2023-02-18T00:34:57.129Z,2.20
2023-02-18T00:35:57.121Z,2.50
2023-02-18T00:36:57.107Z,3.10
2023-02-18T00:37:57.098Z,2.50
2023-02-18T00:38:57.090Z,2.40
2023-02-18T00:39:57.078Z,2.50
2023-02-18T00:40:57.065Z,2.30
2023-02-18T00:41:57.052Z,2.50
2023-02-18T00:42:57.045Z,2.90
2023-02-18T00:43:57.032Z,3.20
2023-02-18T00:44:57.021Z,2.80
2023-02-18T00:45:57.075Z,2.30
2023-02-18T00:46:57.126Z,2.80
2023-02-18T00:47:57.035Z,3.30
2023-02-18T00:48:57.091Z,2.60
2023-02-18T00:49:57.178Z,2.60
2023-02-18T00:50:57.079Z,4.10
2023-02-18T00:51:56.955Z,2.60
2023-02-18T00:52:56.953Z,2.30
2023-02-18T00:53:56.921Z,3.10
2023-02-18T00:54:56.907Z,3.10
2023-02-18T00:55:57.212Z,3.00
2023-02-18T00:56:57.009Z,2.50
2023-02-18T00:57:56.896Z,2.70
2023-02-18T00:58:56.863Z,3.30
2023-02-18T00:59:56.855Z,2.60
2023-02-18T01:00:56.840Z,2.70
2023-02-18T01:01:56.858Z,2.40
2023-02-18T01:02:56.821Z,2.70
2023-02-18T01:03:56.808Z,2.60
2023-02-18T01:04:56.820Z,2.40
2023-02-18T01:05:56.808Z,2.40
2023-02-18T01:06:56.783Z,3.10
2023-02-18T01:07:56.770Z,2.90
2023-02-18T01:08:56.754Z,2.70
2023-02-18T01:09:56.744Z,2.80
2023-02-18T01:10:56.732Z,2.50
2023-02-18T01:11:56.722Z,3.00
2023-02-18T01:12:56.708Z,2.90
2023-02-18T01:13:56.707Z,3.00
2023-02-18T01:14:56.697Z,3.20
2023-02-18T01:15:56.729Z,3.30
2023-02-18T01:16:56.665Z,2.80
2023-02-18T01:17:56.656Z,3.00
2023-02-18T01:18:56.660Z,2.70
2023-02-18T01:19:56.635Z,2.80
2023-02-18T01:20:56.622Z,3.00
2023-02-18T01:21:56.637Z,3.00
2023-02-18T01:22:56.598Z,2.50
2023-02-18T01:23:56.594Z,2.80
2023-02-18T01:24:56.578Z,2.90
2023-02-18T01:25:56.572Z,2.70
2023-02-18T01:26:56.555Z,2.90
2023-02-18T01:27:56.550Z,2.70
2023-02-18T01:28:56.532Z,2.70
2023-02-18T01:29:56.597Z,2.50
2023-02-18T01:30:56.557Z,2.70
2023-02-18T01:31:56.606Z,2.90
2023-02-18T01:32:56.488Z,2.90
2023-02-18T01:33:56.481Z,2.10
2023-02-18T01:34:56.465Z,2.60
2023-02-18T01:35:56.457Z,2.90
2023-02-18T01:36:56.440Z,3.20
2023-02-18T01:37:56.457Z,3.40
2023-02-18T01:38:56.421Z,2.50
2023-02-18T01:39:56.413Z,2.90
2023-02-18T01:40:56.396Z,3.10
2023-02-18T01:41:56.384Z,2.70
2023-02-18T01:42:56.372Z,2.50
2023-02-18T01:43:56.361Z,2.80
2023-02-18T01:44:56.348Z,2.20
2023-02-18T01:45:56.352Z,2.50
2023-02-18T01:46:56.474Z,2.60
2023-02-18T01:47:56.318Z,3.60
2023-02-18T01:48:56.307Z,2.60
2023-02-18T01:49:56.305Z,3.50
2023-02-18T01:50:56.285Z,2.80
2023-02-18T01:51:56.272Z,2.70
2023-02-18T01:52:56.257Z,3.30
2023-02-18T01:53:56.274Z,3.50
2023-02-18T01:54:56.234Z,2.40
2023-02-18T01:55:56.227Z,2.50
2023-02-18T01:56:56.214Z,3.10
2023-02-18T01:57:56.208Z,2.90
2023-02-18T01:58:56.194Z,2.70
2023-02-18T01:59:56.181Z,3.30
2023-02-18T02:00:56.246Z,2.40
2023-02-18T02:01:56.209Z,2.40
2023-02-18T02:02:56.144Z,3.00
2023-02-18T02:03:56.136Z,2.70
2023-02-18T02:04:56.124Z,2.90
2023-02-18T02:05:56.112Z,2.30
2023-02-18T02:06:56.102Z,2.30
2023-02-18T02:07:56.090Z,2.40
2023-02-18T02:08:56.084Z,2.90
2023-02-18T02:09:56.094Z,2.70
2023-02-18T02:10:56.055Z,2.30
2023-02-18T02:11:56.046Z,2.90
2023-02-18T02:12:56.034Z,2.80
2023-02-18T02:13:56.027Z,2.40
2023-02-18T02:14:56.015Z,2.30
2023-02-18T02:15:56.027Z,2.80
2023-02-18T02:16:55.993Z,2.70
2023-02-18T02:17:55.996Z,2.80
2023-02-18T02:18:55.969Z,2.50
2023-02-18T02:19:55.959Z,2.70
2023-02-18T02:20:55.963Z,2.40
2023-02-18T02:21:55.939Z,2.30
2023-02-18T02:22:55.946Z,2.80
2023-02-18T02:23:55.923Z,2.20
2023-02-18T02:24:55.910Z,3.00
2023-02-18T02:25:55.916Z,2.50
2023-02-18T02:26:55.880Z,2.30
2023-02-18T02:27:55.874Z,2.90
2023-02-18T02:28:55.858Z,2.10
2023-02-18T02:29:55.872Z,2.60
2023-02-18T02:30:55.869Z,2.30
2023-02-18T02:31:55.901Z,2.40
2023-02-18T02:32:55.811Z,2.30
2023-02-18T02:33:55.805Z,2.20
2023-02-18T02:34:55.799Z,2.60
2023-02-18T02:35:55.787Z,2.70
2023-02-18T02:36:55.771Z,2.30
2023-02-18T02:37:55.766Z,2.80
2023-02-18T02:38:55.745Z,2.20
2023-02-18T02:39:55.736Z,2.10
2023-02-18T02:40:55.725Z,2.40
2023-02-18T02:41:55.745Z,2.30
2023-02-18T02:42:55.703Z,2.30
2023-02-18T02:43:55.710Z,2.50
2023-02-18T02:44:55.687Z,2.50
2023-02-18T02:45:55.795Z,2.40
2023-02-18T02:46:55.659Z,2.20
2023-02-18T02:47:55.653Z,2.50
2023-02-18T02:48:55.636Z,2.90
2023-02-18T02:49:55.626Z,2.20
2023-02-18T02:50:55.617Z,3.40
2023-02-18T02:51:55.605Z,2.10
2023-02-18T02:52:55.593Z,2.50
2023-02-18T02:53:55.585Z,2.80
2023-02-18T02:54:55.614Z,2.10
2023-02-18T02:55:55.561Z,2.20
2023-02-18T02:56:55.550Z,2.60
2023-02-18T02:57:55.583Z,2.70
2023-02-18T02:58:55.528Z,2.20
2023-02-18T02:59:55.517Z,2.30
2023-02-18T03:00:55.556Z,2.40
2023-02-18T03:01:55.496Z,2.20
2023-02-18T03:02:55.493Z,2.50
2023-02-18T03:03:55.476Z,2.40
2023-02-18T03:04:55.469Z,2.30
2023-02-18T03:05:55.452Z,2.50
2023-02-18T03:06:55.440Z,2.60
2023-02-18T03:07:55.429Z,2.20
2023-02-18T03:08:55.419Z,2.30
2023-02-18T03:09:55.408Z,2.00
2023-02-18T03:10:55.397Z,2.80
2023-02-18T03:11:55.385Z,2.40
2023-02-18T03:12:55.377Z,2.40
2023-02-18T03:13:55.390Z,2.70
2023-02-18T03:14:55.350Z,2.80
2023-02-18T03:15:55.343Z,2.40
2023-02-18T03:16:55.444Z,2.30
2023-02-18T03:17:55.332Z,2.70
2023-02-18T03:18:55.307Z,2.00
2023-02-18T03:19:55.297Z,2.30
2023-02-18T03:20:55.284Z,2.30
2023-02-18T03:21:55.275Z,2.20
2023-02-18T03:22:55.264Z,2.00
2023-02-18T03:23:55.253Z,2.60
2023-02-18T03:24:55.251Z,2.90
2023-02-18T03:25:55.249Z,2.30
2023-02-18T03:26:55.216Z,2.40
2023-02-18T03:27:55.205Z,2.20
2023-02-18T03:28:55.196Z,2.10
2023-02-18T03:29:55.231Z,2.60
2023-02-18T03:30:55.174Z,2.80
2023-02-18T03:31:55.337Z,2.20
2023-02-18T03:32:55.150Z,2.20
2023-02-18T03:33:55.144Z,2.10
2023-02-18T03:34:55.131Z,2.70
2023-02-18T03:35:55.132Z,2.40
2023-02-18T03:36:55.118Z,2.30
2023-02-18T03:37:55.104Z,2.50
2023-02-18T03:38:55.085Z,1.80
2023-02-18T03:39:55.075Z,3.00
2023-02-18T03:40:55.061Z,3.20
2023-02-18T03:41:55.053Z,2.70
2023-02-18T03:42:55.052Z,2.10
2023-02-18T03:43:55.030Z,2.40
2023-02-18T03:44:55.021Z,2.30
2023-02-18T03:45:55.082Z,2.00
2023-02-18T03:46:54.998Z,2.60
2023-02-18T03:47:54.986Z,2.30
2023-02-18T03:48:54.981Z,2.20
2023-02-18T03:49:54.966Z,2.10
2023-02-18T03:50:54.954Z,2.60
2023-02-18T03:51:54.941Z,2.10
2023-02-18T03:52:54.934Z,2.00
2023-02-18T03:53:54.916Z,2.90
2023-02-18T03:54:54.910Z,2.40
2023-02-18T03:55:54.897Z,2.50
2023-02-18T03:56:54.883Z,2.20
2023-02-18T03:57:54.871Z,2.60
2023-02-18T03:58:54.885Z,2.30
2023-02-18T03:59:54.847Z,2.30
2023-02-18T04:00:54.876Z,2.20
2023-02-18T04:01:54.847Z,2.50
2023-02-18T04:02:54.817Z,3.20
2023-02-18T04:03:54.861Z,2.30
2023-02-18T04:04:54.793Z,2.90
2023-02-18T04:05:54.781Z,2.20
2023-02-18T04:06:54.772Z,2.40
2023-02-18T04:07:54.759Z,2.90
2023-02-18T04:08:54.747Z,2.50
2023-02-18T04:09:54.733Z,2.30
2023-02-18T04:10:54.723Z,2.60
2023-02-18T04:11:54.711Z,2.70
2023-02-18T04:12:54.703Z,2.80
2023-02-18T04:13:54.694Z,2.40
2023-02-18T04:14:54.677Z,2.60
2023-02-18T04:15:54.666Z,2.40
2023-02-18T04:16:54.707Z,2.60
2023-02-18T04:17:54.685Z,2.60
2023-02-18T04:18:54.634Z,2.30
2023-02-18T04:19:54.626Z,2.50
2023-02-18T04:20:54.624Z,2.60
2023-02-18T04:21:54.610Z,2.30
2023-02-18T04:22:54.590Z,2.40
2023-02-18T04:23:54.577Z,2.30
2023-02-18T04:24:54.566Z,3.00
2023-02-18T04:25:54.560Z,2.90
2023-02-18T04:26:54.551Z,2.90
2023-02-18T04:27:54.535Z,2.40
2023-02-18T04:28:54.522Z,2.80
2023-02-18T04:29:54.512Z,2.60
2023-02-18T04:30:54.531Z,2.40
2023-02-18T04:31:54.530Z,2.30
2023-02-18T04:32:54.482Z,2.50
2023-02-18T04:33:54.491Z,2.40
2023-02-18T04:34:54.455Z,3.60
2023-02-18T04:35:54.448Z,2.40
2023-02-18T04:36:54.437Z,2.20
2023-02-18T04:37:54.420Z,2.80
2023-02-18T04:38:54.412Z,2.20
2023-02-18T04:39:54.404Z,2.50
2023-02-18T04:40:54.388Z,2.70
2023-02-18T04:41:54.377Z,2.90
2023-02-18T04:42:54.367Z,2.20
2023-02-18T04:43:54.359Z,2.70
2023-02-18T04:44:54.346Z,3.10
2023-02-18T04:45:54.370Z,3.20
2023-02-18T04:46:54.330Z,2.80
2023-02-18T04:47:54.318Z,2.50
2023-02-18T04:48:54.301Z,3.20
2023-02-18T04:49:54.309Z,2.60
2023-02-18T04:50:54.282Z,2.70
2023-02-18T04:51:54.266Z,2.80
2023-02-18T04:52:54.256Z,2.60
2023-02-18T04:53:54.249Z,2.90
2023-02-18T04:54:54.239Z,2.40
2023-02-18T04:55:54.226Z,2.90
2023-02-18T04:56:54.212Z,2.70
2023-02-18T04:57:54.202Z,3.20
2023-02-18T04:58:54.189Z,2.60
2023-02-18T04:59:54.180Z,2.30
2023-02-18T05:00:54.167Z,2.80
2023-02-18T05:01:54.155Z,2.60
2023-02-18T05:02:54.154Z,3.10
2023-02-18T05:03:54.178Z,2.60
2023-02-18T05:04:54.123Z,2.40
2023-02-18T05:05:54.134Z,3.00
2023-02-18T05:06:54.103Z,3.00
2023-02-18T05:07:54.092Z,2.60
2023-02-18T05:08:54.095Z,2.50
2023-02-18T05:09:54.069Z,3.00
2023-02-18T05:10:54.061Z,2.70
2023-02-18T05:11:54.046Z,3.20
2023-02-18T05:12:54.050Z,3.20
2023-02-18T05:13:54.025Z,2.80
2023-02-18T05:14:54.016Z,2.60
2023-02-18T05:15:54.033Z,2.80
2023-02-18T05:16:53.994Z,3.00
2023-02-18T05:17:53.989Z,3.20
2023-02-18T05:18:53.973Z,3.30
2023-02-18T05:19:53.962Z,3.40
2023-02-18T05:20:53.951Z,2.80
2023-02-18T05:21:53.969Z,2.60
2023-02-18T05:22:53.927Z,3.40
2023-02-18T05:23:53.914Z,3.00
2023-02-18T05:24:53.921Z,3.10
2023-02-18T05:25:53.892Z,2.30
2023-02-18T05:26:53.883Z,2.70
2023-02-18T05:27:53.870Z,3.50
2023-02-18T05:28:53.863Z,2.90
2023-02-18T05:29:53.856Z,3.10
2023-02-18T05:30:53.929Z,3.40
2023-02-18T05:31:53.965Z,3.10
2023-02-18T05:32:53.827Z,3.30
2023-02-18T05:33:53.815Z,3.50
2023-02-18T05:34:53.827Z,3.40
2023-02-18T05:35:53.782Z,4.00
2023-02-18T05:36:53.782Z,4.60
2023-02-18T05:37:53.783Z,4.00
2023-02-18T05:38:53.750Z,5.10
2023-02-18T05:39:53.736Z,4.90
2023-02-18T05:40:53.729Z,4.70
2023-02-18T05:41:53.718Z,5.10
2023-02-18T05:42:53.704Z,5.00
2023-02-18T05:43:53.707Z,4.70
2023-02-18T05:44:53.684Z,5.40
2023-02-18T05:45:53.673Z,5.50
2023-02-18T05:46:53.660Z,5.40
2023-02-18T05:47:53.649Z,5.20
2023-02-18T05:48:53.638Z,5.30
2023-02-18T05:49:53.625Z,5.70
2023-02-18T05:50:53.619Z,5.40
2023-02-18T05:51:53.602Z,5.70
2023-02-18T05:52:53.604Z,5.50
2023-02-18T05:53:53.603Z,6.00
2023-02-18T05:54:53.570Z,6.10
2023-02-18T05:55:53.557Z,6.00
2023-02-18T05:56:53.549Z,7.50
2023-02-18T05:57:53.536Z,6.00
2023-02-18T05:58:53.530Z,6.40
2023-02-18T05:59:53.511Z,6.30
2023-02-18T06:00:53.514Z,6.10
2023-02-18T06:01:53.491Z,6.20
2023-02-18T06:02:53.527Z,5.50
2023-02-18T06:03:53.486Z,5.70
2023-02-18T06:04:53.462Z,5.70
2023-02-18T06:05:53.461Z,5.90
2023-02-18T06:06:53.449Z,6.70
2023-02-18T06:07:56.352Z,6.20
2023-02-18T06:08:53.417Z,6.20
2023-02-18T06:09:53.428Z,6.20
2023-02-18T06:10:53.393Z,6.30
2023-02-18T06:11:53.379Z,6.60
2023-02-18T06:12:53.370Z,5.40
2023-02-18T06:13:53.361Z,5.70
2023-02-18T06:14:53.346Z,6.40
2023-02-18T06:15:53.411Z,7.70
2023-02-18T06:16:53.327Z,6.80
2023-02-18T06:17:53.315Z,6.20
2023-02-18T06:18:53.307Z,7.00
2023-02-18T06:19:53.317Z,6.30
2023-02-18T06:20:53.283Z,6.70
2023-02-18T06:21:53.278Z,6.80
2023-02-18T06:22:53.265Z,7.40
2023-02-18T06:23:53.250Z,6.60
2023-02-18T06:24:53.239Z,7.40
2023-02-18T06:25:53.252Z,7.50
2023-02-18T06:26:53.218Z,7.60
2023-02-18T06:27:53.215Z,7.70
2023-02-18T06:28:53.200Z,7.40
2023-02-18T06:29:53.189Z,7.20
2023-02-18T06:30:53.173Z,6.80
2023-02-18T06:31:53.333Z,7.40
2023-02-18T06:32:53.146Z,8.40
2023-02-18T06:33:53.156Z,7.80
2023-02-18T06:34:53.131Z,7.40
2023-02-18T06:35:53.116Z,6.90
2023-02-18T06:36:53.137Z,8.00
2023-02-18T06:37:53.097Z,7.80
2023-02-18T06:38:53.085Z,7.70
2023-02-18T06:39:53.067Z,9.10
2023-02-18T06:40:53.063Z,7.60
2023-02-18T06:41:53.069Z,9.60
2023-02-18T06:42:53.036Z,7.40
2023-02-18T06:43:53.024Z,7.70
2023-02-18T06:44:53.014Z,8.10
2023-02-18T06:45:52.997Z,8.20
2023-02-18T06:46:53.071Z,19.50
2023-02-18T06:47:52.975Z,20.10
2023-02-18T06:48:52.968Z,14.80
2023-02-18T06:49:52.951Z,13.10
2023-02-18T06:50:52.957Z,9.80
2023-02-18T06:51:52.932Z,9.80
2023-02-18T06:52:52.918Z,9.70
2023-02-18T06:53:52.925Z,9.90
2023-02-18T06:54:52.901Z,9.50
2023-02-18T06:55:52.884Z,12.10
2023-02-18T06:56:52.905Z,11.90
2023-02-18T06:57:52.885Z,12.60
2023-02-18T06:58:52.856Z,12.30
2023-02-18T06:59:52.846Z,14.80
2023-02-18T07:00:52.846Z,14.50
2023-02-18T07:01:52.819Z,13.80
2023-02-18T07:02:52.806Z,14.40
2023-02-18T07:03:52.828Z,16.10
2023-02-18T07:04:52.785Z,14.80
2023-02-18T07:05:52.772Z,16.20
2023-02-18T07:06:52.766Z,14.90
2023-02-18T07:07:52.752Z,16.80
2023-02-18T07:08:52.741Z,17.40
2023-02-18T07:09:52.737Z,16.30
2023-02-18T07:10:52.882Z,15.80
2023-02-18T07:11:52.706Z,18.00
2023-02-18T07:12:52.715Z,17.90
2023-02-18T07:13:52.708Z,21.10
2023-02-18T07:14:52.679Z,42.50
2023-02-18T07:15:52.665Z,29.30
2023-02-18T07:16:52.651Z,20.20
2023-02-18T07:17:52.643Z,21.80
2023-02-18T07:18:52.639Z,21.90
2023-02-18T07:19:52.618Z,24.30
2023-02-18T07:20:52.618Z,23.40
2023-02-18T07:21:52.610Z,25.20
2023-02-18T07:22:52.592Z,25.30
2023-02-18T07:23:52.586Z,26.60
2023-02-18T07:24:52.571Z,27.00
2023-02-18T07:25:52.555Z,30.10
2023-02-18T07:26:52.542Z,27.10
2023-02-18T07:27:52.530Z,30.80
2023-02-18T07:28:52.520Z,29.90
2023-02-18T07:29:52.605Z,30.40
2023-02-18T07:30:52.533Z,32.40
2023-02-18T07:31:52.633Z,34.40
2023-02-18T07:32:52.490Z,42.30
2023-02-18T07:33:52.459Z,38.10
2023-02-18T07:34:52.451Z,33.90
2023-02-18T07:35:52.441Z,33.40
2023-02-18T07:36:52.433Z,34.70
2023-02-18T07:37:52.417Z,35.80
2023-02-18T07:38:52.410Z,31.50
2023-02-18T07:39:52.393Z,32.90
2023-02-18T07:40:52.390Z,36.10
2023-02-18T07:41:52.373Z,48.10
2023-02-18T07:42:52.371Z,33.30
2023-02-18T07:43:52.353Z,33.40
2023-02-18T07:44:52.345Z,35.60
2023-02-18T07:45:52.425Z,45.40
2023-02-18T07:46:52.318Z,34.60
2023-02-18T07:47:52.318Z,40.60
2023-02-18T07:48:52.297Z,41.30
2023-02-18T07:49:52.286Z,37.20
2023-02-18T07:50:52.274Z,88.50
2023-02-18T07:51:52.275Z,62.10
2023-02-18T07:52:52.257Z,47.30
2023-02-18T07:53:52.251Z,37.20
2023-02-18T07:54:52.276Z,38.60
2023-02-18T07:55:52.262Z,51.20
2023-02-18T07:56:52.278Z,36.90
2023-02-18T07:57:52.321Z,34.10
2023-02-18T07:58:52.337Z,36.90
2023-02-18T07:59:52.319Z,32.30
2023-02-18T08:00:52.276Z,37.20
2023-02-18T08:01:52.316Z,40.60
2023-02-18T08:02:52.151Z,36.60
2023-02-18T08:03:52.240Z,37.90
2023-02-18T08:04:52.126Z,40.20
2023-02-18T08:05:52.109Z,36.90
2023-02-18T08:06:52.100Z,32.00
2023-02-18T08:07:52.087Z,33.70
2023-02-18T08:08:52.071Z,30.00
2023-02-18T08:09:52.068Z,28.40
2023-02-18T08:10:52.070Z,29.20
2023-02-18T08:11:52.042Z,31.70
2023-02-18T08:12:52.030Z,30.10
2023-02-18T08:13:52.021Z,24.50
2023-02-18T08:14:52.064Z,28.10
2023-02-18T08:15:51.999Z,26.10
2023-02-18T08:16:52.028Z,26.80
2023-02-18T08:17:51.999Z,31.20
2023-02-18T08:18:51.971Z,26.00
2023-02-18T08:19:51.957Z,26.60
2023-02-18T08:20:51.953Z,30.90
2023-02-18T08:21:51.932Z,28.10
2023-02-18T08:22:51.921Z,28.70
2023-02-18T08:23:51.912Z,29.00
2023-02-18T08:24:51.898Z,27.40
2023-02-18T08:25:51.889Z,31.50
2023-02-18T08:27:00.479Z,30.30
2023-02-18T08:27:51.874Z,32.60
2023-02-18T08:28:51.853Z,40.90
2023-02-18T08:29:51.854Z,34.10
2023-02-18T08:30:51.930Z,28.80
2023-02-18T08:31:51.960Z,36.60
2023-02-18T08:32:51.812Z,28.00
2023-02-18T08:33:51.829Z,26.80
2023-02-18T08:34:51.786Z,30.10
2023-02-18T08:35:51.782Z,28.30
2023-02-18T08:36:51.785Z,26.10
2023-02-18T08:37:53.163Z,24.20
2023-02-18T08:38:51.753Z,22.50
2023-02-18T08:39:51.740Z,25.90
2023-02-18T08:40:51.728Z,22.10
2023-02-18T08:41:51.708Z,26.20
2023-02-18T08:42:51.713Z,20.40
2023-02-18T08:43:51.685Z,19.50
2023-02-18T08:44:51.676Z,18.00
2023-02-18T08:45:51.724Z,20.90
2023-02-18T08:46:51.698Z,18.00
2023-02-18T08:48:17.283Z,15.20
2023-02-18T08:48:52.661Z,13.00
2023-02-18T08:49:51.648Z,15.00
2023-02-18T08:50:51.607Z,13.20
2023-02-18T08:51:51.604Z,12.60
2023-02-18T08:52:51.580Z,12.00
2023-02-18T08:53:51.569Z,11.80
2023-02-18T08:54:51.559Z,13.00
2023-02-18T08:55:51.583Z,10.70
2023-02-18T08:56:51.546Z,10.70
2023-02-18T08:57:51.530Z,9.70
2023-02-18T08:58:51.512Z,9.00
2023-02-18T08:59:51.523Z,11.50
2023-02-18T09:00:51.503Z,8.60
2023-02-18T09:01:51.484Z,8.60
2023-02-18T09:02:51.470Z,7.20
2023-02-18T09:03:51.526Z,8.80
2023-02-18T09:04:51.444Z,6.90
2023-02-18T09:05:51.471Z,8.50
2023-02-18T09:06:51.425Z,6.90
2023-02-18T09:07:51.412Z,7.50
2023-02-18T09:08:51.400Z,6.50
2023-02-18T09:09:51.391Z,6.20
2023-02-18T09:10:51.382Z,6.30
2023-02-18T09:11:51.368Z,6.10
2023-02-18T09:12:51.378Z,5.80
2023-02-18T09:13:51.344Z,5.50
2023-02-18T09:14:51.341Z,6.20
2023-02-18T09:15:51.530Z,5.10
2023-02-18T09:16:51.310Z,3.90
2023-02-18T09:17:51.312Z,5.30
2023-02-18T09:18:51.287Z,4.10
2023-02-18T09:19:51.281Z,5.50
2023-02-18T09:20:51.271Z,6.50
2023-02-18T09:21:51.278Z,7.80
2023-02-18T09:22:51.239Z,5.50
2023-02-18T09:23:51.236Z,5.10
2023-02-18T09:24:51.216Z,4.60
2023-02-18T09:25:51.212Z,4.00
2023-02-18T09:26:51.201Z,4.60
2023-02-18T09:27:51.213Z,4.10
2023-02-18T09:28:51.190Z,4.30
2023-02-18T09:29:51.159Z,4.40
2023-02-18T09:30:51.205Z,3.80
2023-02-18T09:31:51.287Z,3.60
2023-02-18T09:32:51.125Z,3.80
2023-02-18T09:33:51.132Z,3.30
2023-02-18T09:34:51.103Z,3.70
2023-02-18T09:35:51.092Z,3.40
2023-02-18T09:36:51.082Z,3.90
2023-02-18T09:37:51.121Z,4.10
2023-02-18T09:38:51.057Z,4.40
2023-02-18T09:39:51.049Z,2.80
2023-02-18T09:40:51.035Z,3.50
2023-02-18T09:41:51.025Z,3.30
2023-02-18T09:42:51.018Z,4.20
2023-02-18T09:43:51.004Z,5.10
2023-02-18T09:44:50.990Z,4.00
2023-02-18T09:45:51.003Z,3.70
2023-02-18T09:46:50.965Z,3.90
2023-02-18T09:47:50.957Z,3.60
2023-02-18T09:48:50.992Z,3.50
2023-02-18T09:49:51.208Z,3.00
2023-02-18T09:50:50.925Z,3.60
2023-02-18T09:51:50.927Z,3.70
2023-02-18T09:52:50.910Z,3.80
2023-02-18T09:53:50.932Z,3.20
2023-02-18T09:54:50.875Z,3.10
2023-02-18T09:55:50.868Z,3.60
2023-02-18T09:56:50.850Z,3.40
2023-02-18T09:57:50.845Z,3.70
2023-02-18T09:58:50.950Z,3.50
2023-02-18T09:59:50.819Z,3.90
2023-02-18T10:00:50.812Z,3.30
2023-02-18T10:01:50.818Z,3.80
2023-02-18T10:02:50.784Z,3.80
2023-02-18T10:03:50.783Z,3.60
2023-02-18T10:04:50.765Z,3.80
2023-02-18T10:05:50.759Z,3.20
2023-02-18T10:06:50.752Z,4.40
2023-02-18T10:07:50.732Z,4.20
2023-02-18T10:08:50.762Z,3.80
2023-02-18T10:09:50.736Z,3.90
2023-02-18T10:10:50.710Z,3.70
2023-02-18T10:11:50.688Z,4.00
2023-02-18T10:12:50.724Z,2.70
2023-02-18T10:13:50.664Z,3.80
2023-02-18T10:14:50.648Z,3.50
2023-02-18T10:15:50.737Z,3.80
2023-02-18T10:16:50.637Z,4.60
2023-02-18T10:17:50.632Z,4.80
2023-02-18T10:18:50.606Z,5.90
2023-02-18T10:19:50.599Z,4.60
2023-02-18T10:20:50.605Z,3.50
2023-02-18T10:21:50.618Z,4.70
2023-02-18T10:22:50.563Z,4.90
2023-02-18T10:23:50.562Z,4.70
2023-02-18T10:24:50.543Z,5.00
2023-02-18T10:25:50.550Z,3.80
2023-02-18T10:26:50.515Z,4.20
2023-02-18T10:27:50.514Z,4.00
2023-02-18T10:28:50.499Z,3.50
2023-02-18T10:29:50.483Z,3.10
2023-02-18T10:30:50.506Z,3.30
2023-02-18T10:31:50.531Z,5.00
2023-02-18T10:32:50.450Z,4.50
2023-02-18T10:33:50.461Z,4.70
2023-02-18T10:34:50.443Z,4.30
2023-02-18T10:35:50.720Z,4.00
2023-02-18T10:36:50.706Z,3.90
2023-02-18T10:37:50.664Z,4.20
2023-02-18T10:38:50.655Z,4.60
2023-02-18T10:39:50.665Z,3.90
2023-02-18T10:40:50.611Z,0.10
2023-02-18T10:41:50.443Z,0.40
2023-02-18T10:42:50.387Z,0.20
2023-02-18T10:43:50.627Z,0.30
2023-02-18T10:44:50.318Z,0.10
2023-02-18T10:45:50.568Z,0.20
2023-02-18T10:46:50.453Z,0.30
2023-02-18T10:47:50.423Z,0.10
2023-02-18T10:48:50.319Z,0.10
2023-02-18T10:49:50.257Z,0.00
2023-02-18T10:50:50.333Z,0.10
2023-02-18T10:51:50.238Z,0.00
2023-02-18T10:52:50.223Z,0.00
2023-02-18T10:53:50.212Z,0.10
2023-02-18T10:54:50.196Z,0.10
2023-02-18T10:55:50.199Z,0.10
2023-02-18T10:56:50.175Z,0.10
2023-02-18T10:57:50.189Z,0.10
2023-02-18T10:58:50.162Z,0.10
2023-02-18T10:59:50.144Z,0.10
2023-02-18T11:00:50.133Z,0.10
2023-02-18T11:01:50.149Z,0.00
2023-02-18T11:02:50.110Z,0.00
2023-02-18T11:03:50.104Z,0.10
2023-02-18T11:04:50.291Z,0.00
2023-02-18T11:05:52.837Z,0.10
2023-02-18T11:06:50.065Z,0.10
2023-02-18T11:07:50.054Z,0.00
2023-02-18T11:08:50.036Z,0.10
2023-02-18T11:09:50.038Z,0.00
2023-02-18T11:10:50.023Z,0.10
2023-02-18T11:11:53.695Z,0.00
2023-02-18T11:12:51.036Z,0.10
2023-02-18T11:13:50.008Z,0.00
2023-02-18T11:14:49.971Z,0.10
2023-02-18T11:15:49.982Z,0.10
2023-02-18T11:16:49.950Z,0.00
2023-02-18T11:17:49.944Z,0.20
2023-02-18T11:18:49.925Z,0.10
2023-02-18T11:19:49.914Z,0.10
2023-02-18T11:20:49.903Z,0.00
2023-02-18T11:21:50.162Z,0.00
2023-02-18T11:22:50.017Z,0.10
2023-02-18T11:24:17.387Z,0.20
2023-02-18T11:25:17.382Z,0.10
2023-02-18T11:26:17.367Z,0.10
2023-02-18T11:27:17.362Z,0.10
2023-02-18T11:28:17.316Z,0.10
2023-02-18T11:29:17.374Z,0.10
2023-02-18T11:30:17.483Z,0.10
2023-02-18T11:31:17.329Z,0.10
2023-02-18T11:32:17.365Z,0.10
2023-02-18T11:33:17.257Z,0.10
2023-02-18T11:34:17.255Z,0.00
2023-02-18T11:35:17.243Z,0.10
2023-02-18T11:36:17.232Z,0.20
2023-02-18T11:37:17.231Z,0.10
2023-02-18T11:38:17.546Z,0.20
2023-02-18T11:39:17.392Z,0.10
2023-02-18T11:40:17.181Z,0.10
2023-02-18T11:41:17.164Z,0.10
2023-02-18T11:42:17.155Z,0.10
2023-02-18T11:43:17.144Z,0.00
2023-02-18T11:44:17.142Z,0.20
2023-02-18T11:45:17.144Z,0.10
2023-02-18T11:46:17.135Z,0.10
2023-02-18T11:47:17.252Z,0.10
2023-02-18T11:48:17.160Z,0.10
2023-02-18T11:49:17.077Z,0.10
2023-02-18T11:50:17.068Z,0.10
2023-02-18T11:51:17.061Z,0.10
2023-02-18T11:52:17.044Z,0.10
2023-02-18T11:53:17.034Z,0.10
2023-02-18T11:54:17.131Z,0.00
2023-02-18T11:55:17.006Z,1.20
2023-02-18T11:56:17.337Z,2.40
2023-02-18T11:57:16.988Z,1.60
2023-02-18T11:58:16.982Z,4.30
2023-02-18T11:59:16.978Z,3.70
2023-02-18T12:00:16.957Z,3.10
2023-02-18T12:01:17.066Z,2.70
2023-02-18T12:02:16.987Z,2.90
2023-02-18T12:03:16.920Z,2.80
2023-02-18T12:04:16.918Z,2.50
2023-02-18T12:05:16.961Z,2.40
2023-02-18T12:06:16.898Z,2.50
2023-02-18T12:07:16.891Z,2.90
2023-02-18T12:08:16.873Z,2.30
2023-02-18T12:09:16.859Z,2.10
2023-02-18T12:10:16.858Z,2.50
2023-02-18T12:11:16.834Z,3.10
2023-02-18T12:12:16.834Z,2.70
2023-02-18T12:13:16.809Z,2.70
2023-02-18T12:14:16.801Z,2.60
2023-02-18T12:15:16.793Z,2.50
2023-02-18T12:16:16.878Z,2.70
2023-02-18T12:17:16.794Z,2.50
2023-02-18T12:18:16.758Z,2.60
2023-02-18T12:19:16.747Z,2.40
2023-02-18T12:20:16.741Z,2.50
2023-02-18T12:21:16.722Z,3.00
2023-02-18T12:22:16.714Z,2.90
2023-02-18T12:23:16.709Z,3.50
2023-02-18T12:24:16.690Z,3.10
2023-02-18T12:25:16.680Z,2.70
2023-02-18T12:26:16.672Z,2.50
2023-02-18T12:27:16.658Z,3.10
2023-02-18T12:28:16.650Z,3.10
2023-02-18T12:29:16.634Z,3.00
2023-02-18T12:30:16.653Z,3.30
2023-02-18T12:31:16.670Z,3.00
2023-02-18T12:32:16.661Z,3.50
2023-02-18T12:33:16.610Z,3.40
2023-02-18T12:34:16.593Z,2.90
2023-02-18T12:35:16.577Z,2.80
2023-02-18T12:36:16.562Z,3.20
2023-02-18T12:37:16.546Z,3.20
2023-02-18T12:38:16.541Z,3.30
2023-02-18T12:39:16.529Z,4.90
2023-02-18T12:40:16.515Z,4.80
2023-02-18T12:41:16.510Z,3.80
2023-02-18T12:42:16.489Z,3.40
2023-02-18T12:43:16.480Z,3.80
2023-02-18T12:44:16.464Z,4.20
2023-02-18T12:45:16.459Z,2.90
2023-02-18T12:46:16.497Z,3.40
2023-02-18T12:47:16.436Z,3.20
2023-02-18T12:48:16.420Z,3.40
2023-02-18T12:49:16.428Z,2.70
2023-02-18T12:50:16.404Z,3.90
2023-02-18T12:51:16.481Z,3.50
2023-02-18T12:52:16.377Z,3.50
2023-02-18T12:53:16.368Z,2.70
2023-02-18T12:54:16.355Z,3.40
2023-02-18T12:55:16.347Z,3.50
2023-02-18T12:56:16.349Z,3.60
2023-02-18T12:57:16.317Z,3.50
2023-02-18T12:58:16.305Z,3.00
2023-02-18T12:59:16.295Z,3.10
2023-02-18T13:00:16.294Z,3.50
2023-02-18T13:01:16.301Z,3.30
2023-02-18T13:02:16.265Z,3.60
2023-02-18T13:03:16.302Z,3.30
2023-02-18T13:04:16.242Z,2.90
2023-02-18T13:05:16.250Z,3.10
2023-02-18T13:06:16.638Z,3.40
2023-02-18T13:07:16.203Z,2.30
2023-02-18T13:08:16.197Z,2.90
2023-02-18T13:09:16.180Z,3.20
2023-02-18T13:10:16.175Z,3.40
2023-02-18T13:11:16.202Z,2.90
2023-02-18T13:12:16.149Z,3.40
2023-02-18T13:13:16.134Z,3.70
2023-02-18T13:14:16.322Z,3.90
2023-02-18T13:15:16.109Z,4.00